Airport ID:KJWN
Update Time (UTC):02/03/2021 17:53
Wind Speed (Knots):8
Wind Direction (Magnetic):70
Temperature (°C):9
Dew Point (°C):-4
Humidity (%):41
Altimeter (inHg):30.26
Density Altitude (Feet):
Visibility:10+
Clouds (Hundreds of feet):CLR
Present Weather:
METAR:METAR KJWN 021750Z AUTO VRB04KT 10SM CLR 09/M04 A3026 RMK A01

The data displayed is for advisory purposes only and is not to be used for flight planning or operations.